createdAt,value
2018-06-09T00:01:37.782Z,91.40
2018-06-09T00:04:08.561Z,91.50
2018-06-09T00:06:39.313Z,91.60
2018-06-09T00:09:10.154Z,91.50
2018-06-09T00:11:41.006Z,91.60
2018-06-09T00:14:11.797Z,91.50
2018-06-09T00:16:42.633Z,91.70
2018-06-09T00:19:13.489Z,91.80
2018-06-09T00:21:44.320Z,91.80
2018-06-09T00:24:15.163Z,91.90
2018-06-09T00:26:46.075Z,91.90
2018-06-09T00:29:17.122Z,91.90
2018-06-09T00:31:47.928Z,91.90
2018-06-09T00:36:48.820Z,91.50
2018-06-09T00:39:19.666Z,91.10
2018-06-09T00:41:50.508Z,90.40
2018-06-09T00:44:21.251Z,90.10
2018-06-09T00:46:51.960Z,89.40
2018-06-09T00:49:22.933Z,88.60
2018-06-09T00:51:53.616Z,89.30
2018-06-09T00:54:24.351Z,90.50
2018-06-09T00:56:55.083Z,90.90
2018-06-09T00:59:25.974Z,91.70
2018-06-09T01:01:56.821Z,92.10
2018-06-09T01:04:27.583Z,92.20
2018-06-09T01:06:58.319Z,92.90
2018-06-09T01:09:29.219Z,92.70
2018-06-09T01:12:00.033Z,92.90
2018-06-09T01:14:30.728Z,93.00
2018-06-09T01:17:01.473Z,93.20
2018-06-09T01:19:32.401Z,93.30
2018-06-09T01:22:03.320Z,93.60
2018-06-09T01:24:34.173Z,93.50
2018-06-09T01:27:04.999Z,92.90
2018-06-09T01:29:35.896Z,92.50
2018-06-09T01:32:06.717Z,92.30
2018-06-09T01:34:37.744Z,93.00
2018-06-09T01:37:08.538Z,93.30
2018-06-09T01:39:39.328Z,93.50
2018-06-09T01:42:10.278Z,93.60
2018-06-09T01:44:41.114Z,93.40
2018-06-09T01:47:11.996Z,93.40
2018-06-09T01:49:43.384Z,93.40
2018-06-09T01:52:14.194Z,93.50
2018-06-09T01:54:45.028Z,93.60
2018-06-09T01:57:15.789Z,93.90
2018-06-09T01:59:46.614Z,94.30
2018-06-09T02:02:17.319Z,94.20
2018-06-09T02:04:48.091Z,94.30
2018-06-09T02:07:18.945Z,94.40
2018-06-09T02:09:49.666Z,94.20
2018-06-09T02:12:20.407Z,94.20
2018-06-09T02:14:51.084Z,94.20
2018-06-09T02:17:21.919Z,94.30
2018-06-09T02:19:52.643Z,94.20
2018-06-09T02:22:23.343Z,94.20
2018-06-09T02:24:54.145Z,94.10
2018-06-09T02:27:24.931Z,94.30
2018-06-09T02:34:56.213Z,94.70
2018-06-09T02:37:26.945Z,94.60
2018-06-09T02:39:57.709Z,94.60
2018-06-09T02:42:28.411Z,94.10
2018-06-09T02:44:59.189Z,93.90
2018-06-09T02:47:30.009Z,93.50
2018-06-09T02:50:00.933Z,93.60
2018-06-09T02:52:31.645Z,93.60
2018-06-09T02:55:02.471Z,93.50
2018-06-09T02:57:33.239Z,93.60
2018-06-09T03:02:34.405Z,93.20
2018-06-09T03:05:05.178Z,93.00
2018-06-09T03:07:35.897Z,93.00
2018-06-09T03:10:06.741Z,92.80
2018-06-09T03:12:37.485Z,92.80
2018-06-09T03:15:08.348Z,92.80
2018-06-09T03:17:39.135Z,93.00
2018-06-09T03:20:09.978Z,93.00
2018-06-09T03:22:40.783Z,92.80
2018-06-09T03:25:11.558Z,92.80
2018-06-09T03:27:42.369Z,92.70
2018-06-09T03:30:13.129Z,92.70
2018-06-09T03:32:43.947Z,92.90
2018-06-09T03:35:14.680Z,93.10
2018-06-09T03:37:45.526Z,92.70
2018-06-09T03:40:16.279Z,92.60
2018-06-09T03:42:47.101Z,92.30
2018-06-09T03:45:17.933Z,92.30
2018-06-09T03:47:48.651Z,92.40
2018-06-09T03:50:19.660Z,92.50
2018-06-09T03:52:50.494Z,92.40
2018-06-09T03:57:51.858Z,92.40
2018-06-09T04:00:22.644Z,92.20
2018-06-09T04:02:53.411Z,92.30
2018-06-09T04:05:24.354Z,92.10
2018-06-09T04:07:55.125Z,92.20
2018-06-09T04:10:25.863Z,92.30
2018-06-09T04:12:56.710Z,92.20
2018-06-09T04:15:27.596Z,92.00
2018-06-09T04:17:58.325Z,92.00
2018-06-09T04:20:29.132Z,91.90
2018-06-09T04:23:00.051Z,91.80
2018-06-09T04:25:32.021Z,91.60
2018-06-09T04:28:03.513Z,91.50
2018-06-09T04:30:34.384Z,91.50
2018-06-09T04:33:05.160Z,91.40
2018-06-09T04:35:35.896Z,91.40
2018-06-09T04:38:06.836Z,91.50
2018-06-09T04:40:37.691Z,91.30
2018-06-09T04:43:08.712Z,91.10
2018-06-09T04:45:39.536Z,91.10
2018-06-09T04:48:10.276Z,91.10
2018-06-09T04:50:41.597Z,91.00
2018-06-09T04:53:12.332Z,91.30
2018-06-09T04:55:43.087Z,91.00
2018-06-09T04:58:13.823Z,91.30
2018-06-09T05:00:44.637Z,91.50
2018-06-09T05:03:15.394Z,91.40
2018-06-09T05:05:46.168Z,91.10
2018-06-09T05:10:47.111Z,90.50
2018-06-09T05:13:17.884Z,89.50
2018-06-09T05:15:48.605Z,87.50
2018-06-09T05:18:19.480Z,87.70
2018-06-09T05:20:50.204Z,83.80
2018-06-09T05:23:20.906Z,80.70
2018-06-09T05:25:51.660Z,80.30
2018-06-09T05:28:22.314Z,80.60
2018-06-09T05:30:53.089Z,81.20
2018-06-09T05:35:53.965Z,82.30
2018-06-09T05:38:24.699Z,79.80
2018-06-09T05:40:55.400Z,77.40
2018-06-09T05:43:26.184Z,78.90
2018-06-09T05:45:56.863Z,80.00
2018-06-09T05:48:27.634Z,83.70
2018-06-09T05:50:58.545Z,82.90
2018-06-09T05:53:29.315Z,83.50
2018-06-09T05:56:00.065Z,84.10
2018-06-09T05:58:30.812Z,78.30
2018-06-09T06:01:01.612Z,78.00
2018-06-09T06:03:32.252Z,80.80
2018-06-09T06:06:02.943Z,82.90
2018-06-09T06:08:33.584Z,83.60
2018-06-09T06:11:04.275Z,84.20
2018-06-09T06:13:34.958Z,85.20
2018-06-09T06:16:05.836Z,85.00
2018-06-09T06:18:36.661Z,87.00
2018-06-09T06:21:07.613Z,85.60
2018-06-09T06:23:38.495Z,85.50
2018-06-09T06:26:09.291Z,85.60
2018-06-09T06:28:40.157Z,86.10
2018-06-09T06:33:41.535Z,86.10
2018-06-09T06:36:12.420Z,84.50
2018-06-09T06:38:43.131Z,81.90
2018-06-09T06:41:18.521Z,80.30
2018-06-09T06:43:49.228Z,76.50
2018-06-09T06:46:20.048Z,71.30
2018-06-09T06:48:50.840Z,68.30
2018-06-09T06:51:22.961Z,67.20
2018-06-09T06:53:53.870Z,68.50
2018-06-09T06:56:24.824Z,69.90
2018-06-09T06:58:55.725Z,70.90
2018-06-09T07:01:26.558Z,71.70
2018-06-09T07:03:57.463Z,72.60
2018-06-09T07:06:28.336Z,72.90
2018-06-09T07:08:59.169Z,72.50
2018-06-09T07:14:00.400Z,66.80
2018-06-09T07:16:32.162Z,60.10
2018-06-09T07:19:03.002Z,56.40
2018-06-09T07:21:33.954Z,53.30
2018-06-09T07:26:35.262Z,48.30
2018-06-09T07:29:06.218Z,47.20
2018-06-09T07:31:37.232Z,44.80
2018-06-09T07:34:08.073Z,43.00
2018-06-09T07:36:39.011Z,43.00
2018-06-09T07:39:09.961Z,39.20
2018-06-09T07:41:40.830Z,38.80
2018-06-09T07:44:12.075Z,38.40
2018-06-09T07:46:42.813Z,40.30
2018-06-09T07:49:13.415Z,41.90
2018-06-09T07:51:44.267Z,44.80
2018-06-09T07:54:14.815Z,46.40
2018-06-09T07:56:45.404Z,49.30
2018-06-09T07:59:15.966Z,50.10
2018-06-09T08:01:46.512Z,51.00
2018-06-09T08:04:17.141Z,52.10
2018-06-09T08:06:47.724Z,52.60
2018-06-09T08:09:18.411Z,53.90
2018-06-09T08:11:49.048Z,54.00
2018-06-09T08:14:19.749Z,53.90
2018-06-09T08:16:50.373Z,54.80
2018-06-09T08:19:21.140Z,56.30
2018-06-09T08:21:51.768Z,57.60
2018-06-09T08:26:52.449Z,56.90
2018-06-09T08:29:23.153Z,58.80
2018-06-09T08:31:53.753Z,59.10
2018-06-09T08:34:24.424Z,59.10
2018-06-09T08:36:55.124Z,60.20
2018-06-09T08:39:25.755Z,62.10
2018-06-09T08:41:56.437Z,63.20
2018-06-09T08:44:26.964Z,64.10
2018-06-09T08:46:57.607Z,64.90
2018-06-09T08:49:28.330Z,64.20
2018-06-09T08:51:59.143Z,64.00
2018-06-09T08:54:29.894Z,64.50
2018-06-09T08:57:00.587Z,65.20
2018-06-09T08:59:31.164Z,65.80
2018-06-09T09:02:17.000Z,65.60
2018-06-09T09:04:50.137Z,68.20
2018-06-09T09:07:21.317Z,69.10
2018-06-09T09:09:51.973Z,70.00
2018-06-09T09:12:22.576Z,73.10
2018-06-09T09:14:53.192Z,72.60
2018-06-09T09:17:24.077Z,71.80
2018-06-09T09:19:54.755Z,71.80
2018-06-09T09:22:25.591Z,71.90
2018-06-09T09:24:57.593Z,72.20
2018-06-09T09:27:28.301Z,71.60
2018-06-09T09:29:58.907Z,71.10
2018-06-09T09:32:30.463Z,70.90
2018-06-09T09:35:01.067Z,70.80
2018-06-09T09:40:02.546Z,70.80
2018-06-09T09:42:35.277Z,71.70
2018-06-09T09:45:07.514Z,71.90
2018-06-09T09:47:38.429Z,71.50
2018-06-09T10:03:36.289Z,72.00
2018-06-09T10:06:08.549Z,72.90
2018-06-09T10:08:39.167Z,71.90
2018-06-09T10:11:09.897Z,72.30
2018-06-09T10:13:40.588Z,73.90
2018-06-09T10:16:11.307Z,75.70
2018-06-09T10:18:41.882Z,76.10
2018-06-09T10:21:12.645Z,75.90
2018-06-09T10:23:43.409Z,75.20
2018-06-09T10:26:14.175Z,73.60
2018-06-09T10:28:45.208Z,74.00
2018-06-09T10:31:15.953Z,73.50
2018-06-09T10:33:46.656Z,73.00
2018-06-09T10:36:17.484Z,74.10
2018-06-09T10:38:48.585Z,75.00
2018-06-09T10:41:19.764Z,72.70
2018-06-09T10:43:50.426Z,73.00
2018-06-09T10:46:21.130Z,73.20
2018-06-09T10:48:51.751Z,71.60
2018-06-09T10:51:22.840Z,71.50
2018-06-09T10:53:53.637Z,73.00
2018-06-09T10:56:24.364Z,74.40
2018-06-09T10:58:55.157Z,74.90
2018-06-09T11:01:26.528Z,75.90
2018-06-09T11:03:57.387Z,74.80
2018-06-09T11:06:28.262Z,73.60
2018-06-09T11:08:59.057Z,73.90
2018-06-09T11:11:29.648Z,73.30
2018-06-09T11:14:00.226Z,74.20
2018-06-09T11:16:30.931Z,72.40
2018-06-09T11:19:01.578Z,72.80
2018-06-09T11:21:32.277Z,72.70
2018-06-09T11:24:03.016Z,73.20
2018-06-09T11:26:33.810Z,72.80
2018-06-09T11:29:04.692Z,70.60
2018-06-09T11:31:35.500Z,69.80
2018-06-09T11:34:06.505Z,67.30
2018-06-09T11:36:37.427Z,65.20
2018-06-09T11:39:11.166Z,66.40
2018-06-09T11:41:42.014Z,66.10
2018-06-09T11:44:14.004Z,64.10
2018-06-09T11:46:48.069Z,63.60
2018-06-09T11:49:19.919Z,63.10
2018-06-09T11:51:50.756Z,64.00
2018-06-09T11:54:21.669Z,65.40
2018-06-09T11:56:53.415Z,64.60
2018-06-09T11:59:24.263Z,64.70
2018-06-09T12:02:00.287Z,64.90
2018-06-09T12:09:37.861Z,64.00
2018-06-09T12:12:11.945Z,65.20
2018-06-09T12:14:42.871Z,66.30
2018-06-09T12:17:28.902Z,65.80
2018-06-09T12:20:02.040Z,65.60
2018-06-09T12:22:32.918Z,66.20
2018-06-09T12:25:03.740Z,66.70
2018-06-09T12:27:34.657Z,65.70
2018-06-09T12:30:05.662Z,65.40
2018-06-09T12:32:36.619Z,65.00
2018-06-09T12:35:22.146Z,64.80
2018-06-09T12:38:32.820Z,64.00
2018-06-09T12:44:11.564Z,61.30
2018-06-09T12:46:42.525Z,63.20
2018-06-09T12:49:13.425Z,61.80
2018-06-09T12:51:44.277Z,59.70
2018-06-09T12:54:15.864Z,61.50
2018-06-09T12:56:46.850Z,61.00
2018-06-09T12:59:17.758Z,59.00
2018-06-09T13:01:48.562Z,60.00
2018-06-09T13:04:19.721Z,60.10
2018-06-09T13:06:50.661Z,60.00
2018-06-09T13:09:21.566Z,60.60
2018-06-09T13:11:52.523Z,59.90
2018-06-09T13:14:23.548Z,60.50
2018-06-09T13:16:54.605Z,60.90
2018-06-09T13:19:25.526Z,60.20
2018-06-09T13:22:01.341Z,59.60
2018-06-09T13:24:37.037Z,60.40
2018-06-09T13:27:08.744Z,60.60
2018-06-09T13:29:39.714Z,60.10
2018-06-09T13:32:10.751Z,59.60
2018-06-09T13:34:43.201Z,60.30
2018-06-09T13:37:14.783Z,61.40
2018-06-09T13:39:46.510Z,62.30
2018-06-09T13:42:18.886Z,62.90
2018-06-09T13:47:19.977Z,63.60
2018-06-09T13:49:50.672Z,62.20
2018-06-09T13:52:21.643Z,62.20
2018-06-09T13:54:52.241Z,61.70
2018-06-09T13:59:53.543Z,61.60
2018-06-09T14:02:27.122Z,60.40
2018-06-09T14:04:58.773Z,60.00
2018-06-09T14:07:29.464Z,59.50
2018-06-09T14:12:36.220Z,60.50
2018-06-09T14:15:07.340Z,60.20
2018-06-09T14:17:38.093Z,61.50
2018-06-09T14:20:08.812Z,62.80
2018-06-09T14:22:39.438Z,61.40
2018-06-09T14:25:10.093Z,60.70
2018-06-09T14:27:40.823Z,61.40
2018-06-09T14:30:11.766Z,61.80
2018-06-09T14:32:42.563Z,62.10
2018-06-09T14:35:13.202Z,63.00
2018-06-09T14:37:44.018Z,62.20
2018-06-09T14:40:14.671Z,62.20
2018-06-09T14:42:45.395Z,61.60
2018-06-09T14:45:16.054Z,62.70
2018-06-09T14:47:46.775Z,62.30
2018-06-09T14:50:20.604Z,62.10
2018-06-09T14:52:51.485Z,60.60
2018-06-09T14:55:22.313Z,59.90
2018-06-09T14:57:53.148Z,58.90
2018-06-09T15:00:24.046Z,59.60
2018-06-09T15:02:54.938Z,60.90
2018-06-09T15:07:55.973Z,62.40
2018-06-09T15:10:26.894Z,62.50
2018-06-09T15:12:57.730Z,62.50
2018-06-09T15:15:28.543Z,63.30
2018-06-09T15:17:59.354Z,64.00
2018-06-09T15:20:30.175Z,63.20
2018-06-09T15:23:01.066Z,64.40
2018-06-09T15:25:35.351Z,61.60
2018-06-09T15:28:06.326Z,60.50
2018-06-09T15:30:37.077Z,59.20
2018-06-09T15:33:07.946Z,58.10
2018-06-09T15:35:38.666Z,57.90
2018-06-09T15:40:39.911Z,58.10
2018-06-09T15:43:10.717Z,57.70
2018-06-09T15:45:41.677Z,57.90
2018-06-09T15:48:12.574Z,58.10
2018-06-09T15:50:45.072Z,57.80
2018-06-09T15:53:15.954Z,59.20
2018-06-09T15:55:46.821Z,58.90
2018-06-09T15:58:17.704Z,58.80
2018-06-09T16:00:48.485Z,59.00
2018-06-09T16:03:19.483Z,59.50
2018-06-09T16:05:53.707Z,60.20
2018-06-09T16:08:24.529Z,61.60
2018-06-09T16:10:55.472Z,62.00
2018-06-09T16:13:26.201Z,61.60
2018-06-09T16:15:56.923Z,62.10
2018-06-09T16:18:28.368Z,61.50
2018-06-09T16:20:59.189Z,61.60
2018-06-09T16:23:29.927Z,61.30
2018-06-09T16:26:00.610Z,62.60
2018-06-09T16:33:32.362Z,61.20
2018-06-09T16:36:03.136Z,61.30
2018-06-09T16:38:33.944Z,63.10
2018-06-09T16:43:34.889Z,63.70
2018-06-09T16:46:05.688Z,64.40
2018-06-09T16:48:36.388Z,64.80
2018-06-09T16:51:07.176Z,66.20
2018-06-09T16:53:38.099Z,66.50
2018-06-09T16:56:08.965Z,66.60
2018-06-09T16:58:39.851Z,67.30
2018-06-09T17:01:10.560Z,67.60
2018-06-09T17:03:41.516Z,67.90
2018-06-09T17:06:12.238Z,68.40
2018-06-09T17:08:42.997Z,68.60
2018-06-09T17:11:13.921Z,68.60
2018-06-09T17:13:44.726Z,69.30
2018-06-09T17:16:15.514Z,68.50
2018-06-09T17:18:46.144Z,69.50
2018-06-09T17:21:16.775Z,70.50
2018-06-09T17:23:47.468Z,70.20
2018-06-09T17:28:59.841Z,69.10
2018-06-09T17:31:30.597Z,70.00
2018-06-09T17:34:01.370Z,69.80
2018-06-09T17:36:32.083Z,70.30
2018-06-09T17:39:02.833Z,70.00
2018-06-09T17:41:34.395Z,70.90
2018-06-09T17:44:05.234Z,70.20
2018-06-09T17:46:36.123Z,71.30
2018-06-09T17:49:06.846Z,69.60
2018-06-09T17:51:37.555Z,67.50
2018-06-09T17:54:08.344Z,67.70
2018-06-09T17:56:39.157Z,66.40
2018-06-09T17:59:10.061Z,66.40
2018-06-09T18:01:41.809Z,66.70
2018-06-09T18:04:14.353Z,66.70
2018-06-09T18:06:50.847Z,66.70
2018-06-09T18:09:21.600Z,67.10
2018-06-09T18:11:52.449Z,67.30
2018-06-09T18:14:23.294Z,67.30
2018-06-09T18:16:56.657Z,67.90
2018-06-09T18:19:30.224Z,67.70
2018-06-09T18:22:03.687Z,67.20
2018-06-09T18:24:34.431Z,67.00
2018-06-09T18:27:05.557Z,67.70
2018-06-09T18:29:36.580Z,67.30
2018-06-09T18:32:07.429Z,67.80
2018-06-09T18:34:38.396Z,67.50
2018-06-09T18:37:12.442Z,67.40
2018-06-09T18:39:43.362Z,67.10
2018-06-09T18:42:14.359Z,67.20
2018-06-09T18:44:45.299Z,67.00
2018-06-09T18:47:32.125Z,67.30
2018-06-09T18:50:02.995Z,67.30
2018-06-09T18:52:33.850Z,68.20
2018-06-09T18:57:35.063Z,69.70
2018-06-09T19:00:06.614Z,69.30
2018-06-09T19:02:37.519Z,69.70
2018-06-09T19:05:08.355Z,69.80
2018-06-09T19:07:39.189Z,70.00
2018-06-09T19:10:10.107Z,70.30
2018-06-09T19:15:11.532Z,71.40
2018-06-09T19:17:42.179Z,71.70
2018-06-09T19:20:13.027Z,72.20
2018-06-09T19:22:43.833Z,73.00
2018-06-09T19:25:14.755Z,74.10
2018-06-09T19:27:45.686Z,73.70
2018-06-09T19:30:16.370Z,74.10
2018-06-09T19:32:47.032Z,74.40
2018-06-09T19:35:17.706Z,74.60
2018-06-09T19:37:48.363Z,75.00
2018-06-09T19:40:19.096Z,75.90
2018-06-09T19:42:49.816Z,77.40
2018-06-09T19:45:20.461Z,78.40
2018-06-09T19:47:51.070Z,79.00
2018-06-09T19:50:21.769Z,79.00
2018-06-09T19:52:52.460Z,79.30
2018-06-09T19:55:23.143Z,79.40
2018-06-09T19:57:53.792Z,79.10
2018-06-09T20:00:24.430Z,78.90
2018-06-09T20:02:55.065Z,79.10
2018-06-09T20:05:25.740Z,79.30
2018-06-09T20:07:56.411Z,79.20
2018-06-09T20:10:27.091Z,79.40
2018-06-09T20:12:57.926Z,79.20
2018-06-09T20:15:28.581Z,79.50
2018-06-09T20:17:59.242Z,79.60
2018-06-09T20:20:29.899Z,79.50
2018-06-09T20:23:00.757Z,79.40
2018-06-09T20:25:31.645Z,79.10
2018-06-09T20:28:02.419Z,79.40
2018-06-09T20:30:35.422Z,79.70
2018-06-09T20:35:36.687Z,80.40
2018-06-09T20:40:37.857Z,79.60
2018-06-09T20:43:09.081Z,79.40
2018-06-09T20:45:39.961Z,79.40
2018-06-09T20:48:10.715Z,79.60
2018-06-09T20:50:41.586Z,79.40
2018-06-09T20:53:12.381Z,80.10
2018-06-09T20:55:43.185Z,80.20
2018-06-09T20:58:14.000Z,79.90
2018-06-09T21:00:44.889Z,79.80
2018-06-09T21:03:15.777Z,79.40
2018-06-09T21:08:16.803Z,79.40
2018-06-09T21:10:49.283Z,80.20
2018-06-09T21:13:37.283Z,80.50
2018-06-09T21:16:08.023Z,81.00
2018-06-09T21:18:38.673Z,81.00
2018-06-09T21:21:09.370Z,81.30
2018-06-09T21:23:41.390Z,81.50
2018-06-09T21:26:12.173Z,81.90
2018-06-09T21:28:47.962Z,81.70
2018-06-09T21:31:23.020Z,81.80
2018-06-09T21:34:10.334Z,81.70
2018-06-09T21:36:46.140Z,82.50
2018-06-09T21:39:21.978Z,82.90
2018-06-09T21:41:57.895Z,82.30
2018-06-09T21:44:33.652Z,82.60
2018-06-09T21:47:04.476Z,82.80
2018-06-09T21:49:35.321Z,83.00
2018-06-09T21:52:06.359Z,83.10
2018-06-09T21:54:37.328Z,83.00
2018-06-09T21:57:08.245Z,83.10
2018-06-09T21:59:39.053Z,83.30
2018-06-09T22:02:09.965Z,83.20
2018-06-09T22:04:40.852Z,83.20
2018-06-09T22:07:11.791Z,83.10
2018-06-09T22:12:13.133Z,83.20
2018-06-09T22:14:44.279Z,83.20
2018-06-09T22:17:15.088Z,83.20
2018-06-09T22:19:45.919Z,83.70
2018-06-09T22:22:16.779Z,84.40
2018-06-09T22:24:47.848Z,84.70
2018-06-09T22:29:49.127Z,84.70
2018-06-09T22:32:20.087Z,84.50
2018-06-09T22:34:50.926Z,84.50
2018-06-09T22:37:21.781Z,84.60
2018-06-09T22:39:52.617Z,84.40
2018-06-09T22:42:23.449Z,84.50
2018-06-09T22:44:54.329Z,84.40
2018-06-09T22:47:25.230Z,84.50
2018-06-09T22:53:36.709Z,84.70
2018-06-09T22:56:25.447Z,85.50
2018-06-09T22:59:01.302Z,85.20
2018-06-09T23:01:40.732Z,85.70
2018-06-09T23:04:12.684Z,86.20
2018-06-09T23:09:14.281Z,86.60
2018-06-09T23:11:45.334Z,86.60
2018-06-09T23:14:16.276Z,86.80
2018-06-09T23:16:47.358Z,86.90
2018-06-09T23:19:22.373Z,86.90
2018-06-09T23:21:54.539Z,86.60
2018-06-09T23:24:25.906Z,86.40
2018-06-09T23:26:57.082Z,86.40
2018-06-09T23:29:28.648Z,86.30
